Time;durP1;ratioP1;P1;durP2;ratioP2;P2;SDS_P1;SDS_P2;PMS_P1;PMS_P2;Temp;Humidity;BMP_temperature;BMP_pressure;BME280_temperature;BME280_humidity;BME280_pressure;Samples;Min_cycle;Max_cycle;Signal;HPM_P1;HPM_P2
2022/10/25 00:01:22;;;;;;;4.45;2.08;;;19.30;99.90;;;;;;4142261;28;20287;-73
2022/10/25 00:03:24;;;;;;;4.28;2.25;;;19.30;99.90;;;;;;4148052;28;20267;-73
2022/10/25 00:05:28;;;;;;;4.18;2.20;;;19.30;99.90;;;;;;4148729;28;20232;-73
2022/10/25 00:07:30;;;;;;;4.55;2.70;;;19.30;99.90;;;;;;4139130;28;20214;-73
2022/10/25 00:09:33;;;;;;;5.50;2.25;;;19.30;99.90;;;;;;4146491;28;20280;-74
2022/10/25 00:11:36;;;;;;;3.40;2.22;;;19.30;99.90;;;;;;4148531;28;20279;-73
2022/10/25 00:13:38;;;;;;;3.92;2.15;;;19.30;99.90;;;;;;4143221;28;20217;-74
2022/10/25 00:15:41;;;;;;;4.38;2.22;;;19.30;99.90;;;;;;4147727;28;20268;-73
2022/10/25 00:17:44;;;;;;;4.43;2.40;;;19.30;99.90;;;;;;4146778;28;20221;-74
2022/10/25 00:19:46;;;;;;;4.07;2.30;;;19.30;99.90;;;;;;4142970;28;20217;-74
2022/10/25 00:21:48;;;;;;;4.47;2.50;;;19.30;99.90;;;;;;4147816;28;20228;-73
2022/10/25 00:23:52;;;;;;;4.60;2.38;;;19.30;99.90;;;;;;4147953;28;20221;-73
2022/10/25 00:26:02;;;;;;;3.17;2.15;;;19.30;99.90;;;;;;4142660;28;20209;-74
2022/10/25 00:28:04;;;;;;;6.95;2.35;;;19.30;99.90;;;;;;4148357;28;20263;-73
2022/10/25 00:30:08;;;;;;;5.43;2.60;;;19.30;99.90;;;;;;4148073;28;20287;-73
2022/10/25 00:32:10;;;;;;;5.05;2.50;;;19.30;99.90;;;;;;4145185;28;20240;-73
2022/10/25 00:34:12;;;;;;;3.97;2.40;;;19.30;99.90;;;;;;4135789;28;20236;-74
2022/10/25 00:36:16;;;;;;;4.07;2.10;;;19.20;99.90;;;;;;4143830;28;20292;-73
2022/10/25 00:38:18;;;;;;;4.10;2.45;;;19.30;99.90;;;;;;4147183;28;20806;-73
2022/10/25 00:40:21;;;;;;;4.75;2.50;;;19.30;99.90;;;;;;4147654;28;20213;-73
2022/10/25 00:42:26;;;;;;;6.93;2.53;;;19.30;99.90;;;;;;4141967;28;20221;-73
2022/10/25 00:44:54;;;;;;;4.22;2.45;;;19.30;99.90;;;;;;4138394;28;20724;-73
2022/10/25 00:46:56;;;;;;;3.70;2.30;;;19.30;99.90;;;;;;4141425;28;20224;-73
2022/10/25 00:49:02;;;;;;;3.90;2.20;;;19.20;99.90;;;;;;4142552;28;20674;-73
2022/10/25 00:51:05;;;;;;;4.72;2.05;;;19.30;99.90;;;;;;4145439;28;20276;-74
2022/10/25 00:53:12;;;;;;;7.90;2.63;;;19.30;99.90;;;;;;4146122;28;20252;-73
2022/10/25 00:55:16;;;;;;;4.32;2.03;;;19.20;99.90;;;;;;4146569;28;20240;-73
2022/10/25 00:57:24;;;;;;;4.22;2.10;;;19.20;99.90;;;;;;4155535;28;20697;-73
2022/10/25 00:59:28;;;;;;;5.32;2.20;;;19.20;99.90;;;;;;4143898;28;20669;-73
2022/10/25 01:01:31;;;;;;;6.38;2.22;;;19.30;99.90;;;;;;4143036;28;20639;-73
2022/10/25 01:03:36;;;;;;;6.57;2.60;;;19.30;99.90;;;;;;4145504;28;20602;-73
2022/10/25 01:05:38;;;;;;;3.80;1.95;;;19.20;99.90;;;;;;4141996;28;20311;-73
2022/10/25 01:07:41;;;;;;;4.38;2.10;;;19.20;99.90;;;;;;4144547;28;20213;-73
2022/10/25 01:09:43;;;;;;;5.57;2.53;;;19.30;99.90;;;;;;4145991;28;20275;-73
2022/10/25 01:11:46;;;;;;;4.40;2.25;;;19.20;99.90;;;;;;4142862;28;20323;-73
2022/10/25 01:13:48;;;;;;;3.67;2.10;;;19.20;99.90;;;;;;4145220;28;20220;-73
2022/10/25 01:16:04;;;;;;;4.10;2.20;;;19.20;99.90;;;;;;4145078;28;20711;-73
2022/10/25 01:18:14;;;;;;;4.20;2.50;;;19.30;99.90;;;;;;4140736;28;20244;-73
2022/10/25 01:20:52;;;;;;;4.82;2.40;;;19.20;99.90;;;;;;4143549;28;20208;-73
2022/10/25 01:23:03;;;;;;;4.80;2.13;;;19.20;99.90;;;;;;4141540;28;20233;-73
2022/10/25 01:25:25;;;;;;;6.35;2.50;;;19.20;99.90;;;;;;4146344;28;20275;-73
2022/10/25 01:27:45;;;;;;;5.75;2.20;;;19.20;99.90;;;;;;4145328;28;20221;-73
2022/10/25 01:30:04;;;;;;;5.13;2.33;;;19.20;99.90;;;;;;4141970;28;20213;-73
2022/10/25 01:32:17;;;;;;;3.45;1.85;;;19.20;99.90;;;;;;4144109;28;20275;-73
2022/10/25 01:34:26;;;;;;;6.13;2.20;;;19.20;99.90;;;;;;4141573;28;20221;-74
2022/10/25 01:36:41;;;;;;;5.28;2.22;;;19.20;99.90;;;;;;4144763;28;20236;-73
2022/10/25 01:38:49;;;;;;;3.50;1.85;;;19.20;99.90;;;;;;4145699;28;20263;-73
2022/10/25 01:41:01;;;;;;;4.13;2.13;;;19.20;99.90;;;;;;4141590;28;20216;-74
2022/10/25 01:43:13;;;;;;;3.97;2.22;;;19.20;99.90;;;;;;4142827;28;20264;-73
2022/10/25 01:45:24;;;;;;;7.10;2.30;;;19.20;99.90;;;;;;4145409;28;20209;-73
2022/10/25 01:47:32;;;;;;;5.60;2.20;;;19.20;99.90;;;;;;4140872;28;20286;-74
2022/10/25 01:49:41;;;;;;;5.30;2.42;;;19.20;99.90;;;;;;4145214;28;20221;-73
2022/10/25 01:51:43;;;;;;;8.23;2.83;;;19.20;99.90;;;;;;4142918;28;20220;-73
2022/10/25 01:53:47;;;;;;;3.90;1.98;;;19.20;99.90;;;;;;4145312;28;20217;-73
2022/10/25 01:55:54;;;;;;;4.30;2.13;;;19.20;99.90;;;;;;4145145;28;20248;-73
2022/10/25 01:58:06;;;;;;;4.57;1.83;;;19.20;99.90;;;;;;4140846;28;20217;-73
2022/10/25 02:00:10;;;;;;;3.72;2.38;;;19.20;99.90;;;;;;4144107;28;20779;-74
2022/10/25 02:02:22;;;;;;;3.03;2.08;;;19.20;99.90;;;;;;4144344;28;20657;-73
2022/10/25 02:04:35;;;;;;;5.05;2.40;;;19.20;99.90;;;;;;4143594;28;20229;-73
2022/10/25 02:06:48;;;;;;;3.63;2.05;;;19.20;99.90;;;;;;4146287;28;20213;-73
2022/10/25 02:08:57;;;;;;;5.20;2.20;;;19.20;99.90;;;;;;4148061;28;20351;-73
2022/10/25 02:11:07;;;;;;;4.20;1.92;;;19.20;99.90;;;;;;4141397;28;20229;-73
2022/10/25 02:13:17;;;;;;;3.95;1.77;;;19.20;99.90;;;;;;4145015;28;20279;-73
2022/10/25 02:15:25;;;;;;;3.72;2.10;;;19.20;99.90;;;;;;4142146;28;20224;-73
2022/10/25 02:17:28;;;;;;;4.15;1.98;;;19.20;99.90;;;;;;4144259;28;20220;-73
2022/10/25 02:19:34;;;;;;;3.50;2.05;;;19.20;99.90;;;;;;4146037;28;20272;-75
2022/10/25 02:21:37;;;;;;;5.07;1.98;;;19.20;99.90;;;;;;4141898;28;20666;-73
2022/10/25 02:23:40;;;;;;;2.72;2.03;;;19.20;99.90;;;;;;4145969;28;20636;-73
2022/10/25 02:25:43;;;;;;;5.68;1.85;;;19.20;99.90;;;;;;4146357;28;20224;-73
2022/10/25 02:27:46;;;;;;;5.60;2.10;;;19.20;99.90;;;;;;4140807;28;20217;-73
2022/10/25 02:29:50;;;;;;;3.70;2.10;;;19.20;99.90;;;;;;4145749;28;20275;-74
2022/10/25 02:31:52;;;;;;;3.75;1.65;;;19.20;99.90;;;;;;4144950;28;20625;-73
2022/10/25 02:33:54;;;;;;;4.50;2.03;;;19.20;99.90;;;;;;4139979;28;20283;-73
2022/10/25 02:36:12;;;;;;;3.47;1.90;;;19.20;99.90;;;;;;4145817;28;20240;-73
2022/10/25 02:38:14;;;;;;;4.30;2.03;;;19.20;99.90;;;;;;4129556;28;20221;-73
2022/10/25 02:40:17;;;;;;;3.75;1.90;;;19.20;99.90;;;;;;4144469;28;20217;-73
2022/10/25 02:42:19;;;;;;;3.70;1.98;;;19.20;99.90;;;;;;4145508;28;20220;-73
2022/10/25 02:44:21;;;;;;;3.05;2.05;;;19.20;99.90;;;;;;4140389;28;20243;-73
2022/10/25 02:46:24;;;;;;;4.13;1.98;;;19.20;99.90;;;;;;4145385;28;20213;-74
2022/10/25 02:48:26;;;;;;;3.35;1.92;;;19.20;99.90;;;;;;4142062;28;20255;-74
2022/10/25 02:50:29;;;;;;;4.50;1.80;;;19.20;99.90;;;;;;4141426;28;20589;-74
2022/10/25 02:52:32;;;;;;;3.35;2.38;;;19.20;99.90;;;;;;4145622;28;20642;-74
2022/10/25 02:54:34;;;;;;;5.13;2.13;;;19.10;99.90;;;;;;4146364;28;20213;-74
2022/10/25 02:56:38;;;;;;;5.53;1.77;;;19.20;99.90;;;;;;4141283;28;20352;-74
2022/10/25 02:58:42;;;;;;;4.53;2.08;;;19.20;99.90;;;;;;4145625;28;20275;-74
2022/10/25 03:00:44;;;;;;;5.10;2.00;;;19.20;99.90;;;;;;4144855;28;20209;-74
2022/10/25 03:02:46;;;;;;;4.30;2.25;;;19.20;99.90;;;;;;4141141;28;20256;-74
2022/10/25 03:04:49;;;;;;;4.75;2.28;;;19.20;99.90;;;;;;4145765;28;20283;-74
2022/10/25 03:06:51;;;;;;;3.97;1.67;;;19.20;99.90;;;;;;4141593;28;20221;-74
2022/10/25 03:08:55;;;;;;;5.28;1.90;;;19.20;99.90;;;;;;4141880;28;20221;-74
2022/10/25 03:10:57;;;;;;;4.18;2.17;;;19.10;99.90;;;;;;4145382;28;20602;-74
2022/10/25 03:12:59;;;;;;;5.13;2.05;;;19.10;99.90;;;;;;4142409;28;20478;-74
2022/10/25 03:15:01;;;;;;;3.38;2.15;;;19.10;99.90;;;;;;4144179;28;20221;-74
2022/10/25 03:17:05;;;;;;;5.45;2.10;;;19.10;99.90;;;;;;4144890;28;20670;-74
2022/10/25 03:19:07;;;;;;;5.30;1.80;;;19.10;99.90;;;;;;4140125;28;20259;-74
2022/10/25 03:21:09;;;;;;;3.55;1.73;;;19.10;99.90;;;;;;4135308;28;20214;-74
2022/10/25 03:23:12;;;;;;;6.72;2.40;;;19.10;99.90;;;;;;4143114;28;20267;-74
2022/10/25 03:25:16;;;;;;;5.55;2.13;;;19.10;99.90;;;;;;4134709;28;20336;-74
2022/10/25 03:27:18;;;;;;;4.57;2.05;;;19.10;99.90;;;;;;4145333;28;20625;-74
2022/10/25 03:29:21;;;;;;;3.60;1.80;;;19.10;99.90;;;;;;4145512;28;20352;-74
2022/10/25 03:31:24;;;;;;;3.35;2.17;;;19.10;99.90;;;;;;4139209;28;20217;-74
2022/10/25 03:33:27;;;;;;;3.63;1.67;;;19.10;99.90;;;;;;4145130;28;20267;-74
2022/10/25 03:35:29;;;;;;;3.63;1.98;;;19.20;99.90;;;;;;4145091;28;20271;-74
2022/10/25 03:37:31;;;;;;;4.15;2.15;;;19.10;99.90;;;;;;4132939;28;20291;-74
2022/10/25 03:39:34;;;;;;;3.78;2.03;;;19.10;99.90;;;;;;4143918;28;20217;-74
2022/10/25 03:41:37;;;;;;;3.05;1.63;;;19.10;99.90;;;;;;4142120;28;20221;-74
2022/10/25 03:43:40;;;;;;;4.75;2.00;;;19.10;99.90;;;;;;4140937;28;20295;-74
2022/10/25 03:45:42;;;;;;;3.55;2.00;;;19.10;99.90;;;;;;4144849;28;20263;-74
2022/10/25 03:47:45;;;;;;;5.50;2.22;;;19.10;99.90;;;;;;4142313;28;20260;-74
2022/10/25 03:49:47;;;;;;;3.55;1.75;;;19.10;99.90;;;;;;4144002;28;20263;-73
2022/10/25 03:51:49;;;;;;;2.42;1.60;;;19.10;99.90;;;;;;4145228;28;20271;-74
2022/10/25 03:53:51;;;;;;;3.40;1.80;;;19.10;99.90;;;;;;4140435;28;20288;-74
2022/10/25 03:55:54;;;;;;;3.75;1.88;;;19.10;99.90;;;;;;4144245;28;20217;-74
2022/10/25 03:57:57;;;;;;;3.05;1.70;;;19.10;99.90;;;;;;4145072;28;20237;-74
2022/10/25 04:00:00;;;;;;;5.45;2.08;;;19.10;99.90;;;;;;4140603;28;20650;-74
2022/10/25 04:02:02;;;;;;;4.80;2.33;;;19.10;99.90;;;;;;4144208;28;20647;-74
2022/10/25 04:04:04;;;;;;;3.10;1.70;;;19.10;99.90;;;;;;4144844;28;20224;-74
2022/10/25 04:06:07;;;;;;;2.95;1.85;;;19.10;99.90;;;;;;4140132;28;20991;-74
2022/10/25 04:08:09;;;;;;;3.90;1.92;;;19.10;99.90;;;;;;4144769;28;20256;-74
2022/10/25 04:10:12;;;;;;;4.32;2.10;;;19.10;99.90;;;;;;4144977;28;20248;-74
2022/10/25 04:12:14;;;;;;;3.55;1.92;;;19.10;99.90;;;;;;4138584;28;20217;-74
2022/10/25 04:14:17;;;;;;;3.22;1.75;;;19.10;99.90;;;;;;4144058;28;20267;-74
2022/10/25 04:16:23;;;;;;;4.85;1.80;;;19.10;99.90;;;;;;4145138;28;20248;-74
2022/10/25 04:18:25;;;;;;;4.95;1.77;;;19.10;99.90;;;;;;4135115;28;20553;-74
2022/10/25 04:20:27;;;;;;;4.45;2.10;;;19.10;99.90;;;;;;4145145;28;20263;-74
2022/10/25 04:22:29;;;;;;;5.63;2.05;;;19.10;99.90;;;;;;4145398;28;20271;-74
2022/10/25 04:24:32;;;;;;;3.60;1.80;;;19.10;99.90;;;;;;4140722;28;20765;-74
2022/10/25 04:26:35;;;;;;;4.32;1.83;;;19.10;99.90;;;;;;4144274;28;20218;-74
2022/10/25 04:28:37;;;;;;;4.50;2.03;;;19.10;99.90;;;;;;4144787;28;20217;-74
2022/10/25 04:30:41;;;;;;;3.60;1.83;;;19.10;99.90;;;;;;4140530;28;20213;-74
2022/10/25 04:32:43;;;;;;;4.53;2.00;;;19.10;99.90;;;;;;4144767;28;20225;-74
2022/10/25 04:34:46;;;;;;;2.80;1.73;;;19.10;99.90;;;;;;4144497;28;20264;-74
2022/10/25 04:36:48;;;;;;;5.25;2.00;;;19.10;99.90;;;;;;4138844;28;20271;-74
2022/10/25 04:38:50;;;;;;;3.53;1.88;;;19.10;99.90;;;;;;4147447;28;20217;-74
2022/10/25 04:40:54;;;;;;;3.42;1.35;;;19.10;99.90;;;;;;4147252;28;20221;-74
2022/10/25 04:43:01;;;;;;;5.65;1.95;;;19.10;99.90;;;;;;4141398;28;20673;-74
2022/10/25 04:45:03;;;;;;;3.28;1.88;;;19.10;99.90;;;;;;4139836;28;20221;-74
2022/10/25 04:47:07;;;;;;;3.22;1.70;;;19.10;99.90;;;;;;4147200;28;20252;-74
2022/10/25 04:49:12;;;;;;;2.70;1.75;;;19.10;99.90;;;;;;4146096;28;20975;-74
2022/10/25 04:51:15;;;;;;;4.25;1.90;;;19.10;99.90;;;;;;4143921;28;20225;-73
2022/10/25 04:53:17;;;;;;;3.17;2.00;;;19.10;99.90;;;;;;4147663;28;20213;-74
2022/10/25 04:55:19;;;;;;;4.25;2.10;;;19.10;99.90;;;;;;4144934;28;20220;-74
2022/10/25 04:57:22;;;;;;;4.28;1.80;;;19.10;99.90;;;;;;4146226;28;20280;-74
2022/10/25 04:59:24;;;;;;;2.90;1.60;;;19.10;99.90;;;;;;4147246;28;20268;-74
2022/10/25 05:01:26;;;;;;;3.08;1.63;;;19.10;99.90;;;;;;4141858;28;20233;-74
2022/10/25 05:03:31;;;;;;;3.88;1.73;;;19.10;99.90;;;;;;4146349;28;20613;-74
2022/10/25 05:05:33;;;;;;;3.83;1.85;;;19.10;99.90;;;;;;4147753;28;20224;-73
2022/10/25 05:07:35;;;;;;;4.60;2.08;;;19.10;99.90;;;;;;4136470;28;20210;-73
2022/10/25 05:09:37;;;;;;;4.13;1.90;;;19.10;99.90;;;;;;4145589;28;20209;-73
2022/10/25 05:11:40;;;;;;;2.60;1.73;;;19.10;99.90;;;;;;4147349;28;20328;-73
2022/10/25 05:13:43;;;;;;;3.53;1.90;;;19.00;99.90;;;;;;4137831;28;20218;-73
2022/10/25 05:15:54;;;;;;;4.15;2.10;;;19.10;99.90;;;;;;4146820;28;20279;-73
2022/10/25 05:18:00;;;;;;;2.75;1.70;;;19.00;99.90;;;;;;4145169;28;20271;-73
2022/10/25 05:20:05;;;;;;;5.07;2.08;;;19.10;99.90;;;;;;4143767;28;20678;-73
2022/10/25 05:22:07;;;;;;;3.40;1.58;;;19.10;99.90;;;;;;4146818;28;20696;-74
2022/10/25 05:24:09;;;;;;;4.60;1.92;;;19.10;99.90;;;;;;4146962;28;20973;-74
2022/10/25 05:26:13;;;;;;;6.53;2.08;;;19.10;99.90;;;;;;4141363;28;20646;-74
2022/10/25 05:28:16;;;;;;;3.28;1.90;;;19.00;99.90;;;;;;4146370;28;20205;-74
2022/10/25 05:30:18;;;;;;;4.93;1.83;;;19.10;99.90;;;;;;4146906;28;20213;-74
2022/10/25 05:32:20;;;;;;;4.55;1.98;;;19.10;99.90;;;;;;4139369;28;20603;-74
2022/10/25 05:34:23;;;;;;;6.22;1.83;;;19.10;99.90;;;;;;4142188;28;20283;-74
2022/10/25 05:36:28;;;;;;;5.32;2.10;;;19.10;99.90;;;;;;4146664;28;20244;-74
2022/10/25 05:38:30;;;;;;;3.63;2.03;;;19.10;99.90;;;;;;4140906;28;20338;-74
2022/10/25 05:40:33;;;;;;;5.40;2.10;;;19.10;99.90;;;;;;4146686;28;20221;-74
2022/10/25 05:42:35;;;;;;;4.43;2.10;;;19.10;99.90;;;;;;4145044;28;20272;-74
2022/10/25 05:44:37;;;;;;;4.03;2.00;;;19.10;99.90;;;;;;4140910;28;20563;-74
2022/10/25 05:46:40;;;;;;;4.55;1.70;;;19.10;99.90;;;;;;4146810;28;20535;-74
2022/10/25 05:48:42;;;;;;;3.72;2.10;;;19.10;99.90;;;;;;4143385;28;20209;-74
2022/10/25 05:50:45;;;;;;;4.63;1.70;;;19.10;99.90;;;;;;4141027;28;20217;-74
2022/10/25 05:52:49;;;;;;;2.97;1.35;;;19.10;99.90;;;;;;4138894;28;20723;-74
2022/10/25 05:54:51;;;;;;;4.38;1.60;;;19.10;99.90;;;;;;4145166;28;20628;-74
2022/10/25 05:56:53;;;;;;;4.82;2.10;;;19.10;99.90;;;;;;4143283;28;20267;-74
2022/10/25 05:58:56;;;;;;;3.97;1.70;;;19.10;99.90;;;;;;4147157;28;20241;-74
2022/10/25 06:00:59;;;;;;;2.97;1.95;;;19.00;99.90;;;;;;4142118;28;20237;-74
2022/10/25 06:03:02;;;;;;;5.22;1.70;;;19.10;99.90;;;;;;4145003;28;20221;-74
2022/10/25 06:05:04;;;;;;;3.65;1.67;;;19.10;99.90;;;;;;4146092;28;20264;-74
2022/10/25 06:07:07;;;;;;;5.90;2.28;;;19.10;99.90;;;;;;4137717;28;20214;-73
2022/10/25 06:09:11;;;;;;;4.20;2.05;;;19.10;99.90;;;;;;4140844;28;20658;-74
2022/10/25 06:11:15;;;;;;;5.63;1.70;;;19.10;99.90;;;;;;4146581;28;20283;-74
2022/10/25 06:13:18;;;;;;;3.60;1.50;;;19.10;99.90;;;;;;4141212;28;20233;-74
2022/10/25 06:15:20;;;;;;;4.60;1.92;;;19.00;99.90;;;;;;4146353;28;20279;-74
2022/10/25 06:17:22;;;;;;;5.00;1.90;;;19.10;99.90;;;;;;4146431;28;20726;-74
2022/10/25 06:19:25;;;;;;;4.82;2.00;;;19.10;99.90;;;;;;4142261;28;20232;-74
2022/10/25 06:21:28;;;;;;;3.47;1.60;;;19.10;99.90;;;;;;4143109;28;20213;-74
2022/10/25 06:23:31;;;;;;;3.85;1.77;;;19.00;99.90;;;;;;4144904;28;20276;-74
2022/10/25 06:25:35;;;;;;;3.50;1.95;;;19.00;99.90;;;;;;4143380;28;20632;-74
2022/10/25 06:27:37;;;;;;;3.00;1.55;;;19.10;99.90;;;;;;4145806;28;20217;-74
2022/10/25 06:29:39;;;;;;;2.97;1.58;;;19.00;99.90;;;;;;4140761;28;20268;-74
2022/10/25 06:31:43;;;;;;;3.22;1.75;;;19.10;99.90;;;;;;4139354;28;20221;-74
2022/10/25 06:33:46;;;;;;;5.60;1.80;;;19.00;99.90;;;;;;4145508;28;20275;-74
2022/10/25 06:35:54;;;;;;;4.60;1.95;;;19.00;99.90;;;;;;4134821;28;20267;-74
2022/10/25 06:37:59;;;;;;;4.00;2.20;;;19.00;99.90;;;;;;4145807;28;20657;-74
2022/10/25 06:40:01;;;;;;;3.13;1.80;;;19.00;99.90;;;;;;4145801;28;20217;-74
2022/10/25 06:42:05;;;;;;;3.83;1.92;;;19.10;99.90;;;;;;4138640;28;20263;-72
2022/10/25 06:44:07;;;;;;;4.75;1.85;;;19.00;99.90;;;;;;4141198;28;20217;-73
2022/10/25 06:46:13;;;;;;;5.75;1.75;;;19.00;99.90;;;;;;4145270;28;20221;-73
2022/10/25 06:48:15;;;;;;;2.72;1.70;;;19.00;99.90;;;;;;4138544;28;20675;-73
2022/10/25 06:50:17;;;;;;;3.05;1.70;;;19.00;99.90;;;;;;4144482;28;20268;-73
2022/10/25 06:52:20;;;;;;;3.42;1.88;;;19.00;99.90;;;;;;4145571;28;20653;-73
2022/10/25 06:54:24;;;;;;;3.33;1.77;;;19.00;99.90;;;;;;4139805;28;20267;-73
2022/10/25 06:56:27;;;;;;;3.05;1.70;;;19.00;99.90;;;;;;4144467;28;20273;-74
2022/10/25 06:58:31;;;;;;;3.33;1.60;;;19.00;99.90;;;;;;4143438;28;20306;-72
2022/10/25 07:00:34;;;;;;;3.70;1.90;;;19.00;99.90;;;;;;4137786;28;20221;-72
2022/10/25 07:02:37;;;;;;;5.75;2.10;;;19.00;99.90;;;;;;4142832;28;20669;-72
2022/10/25 07:04:39;;;;;;;8.18;1.77;;;19.00;99.90;;;;;;4136197;28;20218;-73
2022/10/25 07:06:42;;;;;;;6.07;1.90;;;19.00;99.90;;;;;;4142840;28;20222;-73
2022/10/25 07:08:46;;;;;;;2.70;1.40;;;19.00;99.90;;;;;;4141850;28;20221;-74
2022/10/25 07:10:53;;;;;;;4.32;1.50;;;19.00;99.90;;;;;;4142457;28;20224;-74
2022/10/25 07:12:55;;;;;;;3.65;1.75;;;19.00;99.90;;;;;;4149770;28;20743;-74
2022/10/25 07:14:59;;;;;;;8.13;1.95;;;19.00;99.90;;;;;;4142087;28;20217;-74
2022/10/25 07:17:01;;;;;;;6.00;1.90;;;19.00;99.90;;;;;;4142104;28;20673;-75
2022/10/25 07:19:05;;;;;;;3.35;1.55;;;19.10;99.90;;;;;;4143884;28;20826;-75
2022/10/25 07:21:10;;;;;;;4.03;1.83;;;19.10;99.90;;;;;;4142912;28;20587;-75
2022/10/25 07:23:13;;;;;;;2.75;1.42;;;19.20;99.90;;;;;;4139893;28;20217;-75
2022/10/25 07:25:15;;;;;;;5.32;1.80;;;19.20;99.90;;;;;;4145620;28;20221;-73
2022/10/25 07:27:18;;;;;;;5.80;1.80;;;19.20;99.90;;;;;;4141414;28;20229;-75
2022/10/25 07:29:20;;;;;;;6.13;2.10;;;19.30;99.90;;;;;;4136046;28;20241;-75
2022/10/25 07:31:26;;;;;;;3.40;1.85;;;19.30;99.90;;;;;;4139193;28;20283;-74
2022/10/25 07:33:30;;;;;;;7.95;1.80;;;19.30;99.90;;;;;;4135469;28;20217;-74
2022/10/25 07:35:33;;;;;;;7.00;1.73;;;19.30;99.90;;;;;;4139385;28;20268;-73
2022/10/25 07:37:36;;;;;;;4.72;1.70;;;19.30;99.90;;;;;;4131661;28;20248;-73
2022/10/25 07:39:38;;;;;;;5.32;1.73;;;19.30;99.90;;;;;;4134519;28;20236;-73
2022/10/25 07:41:40;;;;;;;4.43;1.88;;;19.30;99.90;;;;;;4139793;28;20217;-72
2022/10/25 07:43:43;;;;;;;4.68;1.80;;;19.30;99.90;;;;;;4136972;28;20213;-73
2022/10/25 07:45:45;;;;;;;4.22;1.98;;;19.40;99.90;;;;;;4138346;28;20271;-72
2022/10/25 07:47:51;;;;;;;4.20;1.60;;;19.40;99.90;;;;;;4142514;28;21862;-72
2022/10/25 07:49:56;;;;;;;3.88;1.73;;;19.40;99.90;;;;;;4138656;28;20217;-72
2022/10/25 07:51:58;;;;;;;5.47;2.00;;;19.40;99.90;;;;;;4140234;28;20287;-72
2022/10/25 07:54:00;;;;;;;4.38;1.70;;;19.40;99.90;;;;;;4142571;28;20263;-72
2022/10/25 07:56:03;;;;;;;4.63;1.73;;;19.50;99.90;;;;;;4137668;28;20213;-72
2022/10/25 07:58:07;;;;;;;4.90;1.88;;;19.50;99.90;;;;;;4143960;28;20282;-74
2022/10/25 08:00:10;;;;;;;3.85;1.83;;;19.50;99.90;;;;;;4134947;28;20292;-72
2022/10/25 08:02:14;;;;;;;5.72;1.83;;;19.50;99.90;;;;;;4141600;28;20276;-72
2022/10/25 08:04:18;;;;;;;6.28;1.90;;;19.50;99.90;;;;;;4141203;28;20217;-72
2022/10/25 08:06:21;;;;;;;5.07;1.80;;;19.50;99.90;;;;;;4140837;28;20241;-72
2022/10/25 08:08:24;;;;;;;3.58;1.70;;;19.50;99.90;;;;;;4140650;28;20213;-73
2022/10/25 08:10:27;;;;;;;5.03;1.98;;;19.50;99.90;;;;;;4141128;28;20248;-72
2022/10/25 08:12:29;;;;;;;6.05;1.75;;;19.50;99.90;;;;;;4144292;28;20209;-73
2022/10/25 08:14:31;;;;;;;6.18;1.80;;;19.50;99.90;;;;;;4134660;28;21968;-72
2022/10/25 08:16:34;;;;;;;4.40;1.70;;;19.50;99.90;;;;;;4125345;28;20274;-72
2022/10/25 08:18:36;;;;;;;5.40;1.80;;;19.50;99.90;;;;;;4122446;28;20685;-73
2022/10/25 08:20:40;;;;;;;5.95;1.80;;;19.50;99.90;;;;;;4120794;28;20245;-73
2022/10/25 08:22:42;;;;;;;5.35;1.77;;;19.50;99.90;;;;;;4123500;28;20217;-72
2022/10/25 08:24:45;;;;;;;4.50;1.80;;;19.60;99.90;;;;;;4122972;28;20966;-71
2022/10/25 08:26:48;;;;;;;2.97;1.45;;;19.60;99.90;;;;;;4122594;28;20267;-73
2022/10/25 08:28:51;;;;;;;4.22;2.00;;;19.60;99.90;;;;;;4125339;28;20354;-72
2022/10/25 08:30:54;;;;;;;4.43;1.70;;;19.70;99.90;;;;;;4123783;28;20657;-73
2022/10/25 08:32:56;;;;;;;8.65;1.85;;;19.70;99.90;;;;;;4126172;28;20714;-73
2022/10/25 08:34:58;;;;;;;5.68;1.73;;;19.60;99.90;;;;;;4124880;28;20267;-72
2022/10/25 08:37:02;;;;;;;5.07;1.63;;;19.60;99.90;;;;;;4124465;28;20225;-72
2022/10/25 08:39:07;;;;;;;4.30;1.73;;;19.70;99.90;;;;;;4123211;28;20327;-71
2022/10/25 08:41:17;;;;;;;4.22;1.92;;;19.70;99.90;;;;;;4123464;28;20303;-71
2022/10/25 08:43:45;;;;;;;7.00;2.08;;;19.70;99.90;;;;;;4123878;28;20225;-73
2022/10/25 08:45:55;;;;;;;4.85;1.45;;;19.70;99.90;;;;;;4123716;28;20221;-73
2022/10/25 08:47:58;;;;;;;6.78;2.20;;;19.70;99.90;;;;;;4126243;28;20673;-74
2022/10/25 08:50:05;;;;;;;4.38;1.60;;;19.70;99.90;;;;;;4125962;28;21226;-73
2022/10/25 08:52:18;;;;;;;4.43;1.83;;;19.80;99.90;;;;;;4130317;28;20229;-74
2022/10/25 08:54:26;;;;;;;5.60;1.85;;;19.80;99.90;;;;;;4127655;28;20221;-74
2022/10/25 08:56:29;;;;;;;5.25;1.67;;;19.80;99.90;;;;;;4127829;28;20330;-74
2022/10/25 08:58:36;;;;;;;3.10;1.88;;;19.80;99.90;;;;;;4127364;28;20225;-72
2022/10/25 09:00:40;;;;;;;6.05;1.67;;;19.80;99.90;;;;;;4117929;28;21360;-72
2022/10/25 09:02:49;;;;;;;5.80;1.98;;;19.80;99.90;;;;;;4141595;28;20608;-72
2022/10/25 09:04:51;;;;;;;7.53;1.80;;;19.80;99.90;;;;;;4133612;28;20265;-73
2022/10/25 09:07:06;;;;;;;6.88;1.88;;;19.80;99.90;;;;;;4139875;28;20273;-72
2022/10/25 09:09:24;;;;;;;5.45;2.00;;;19.80;99.90;;;;;;4142757;28;20268;-72
2022/10/25 09:11:42;;;;;;;5.28;1.90;;;19.80;99.90;;;;;;4144552;28;20220;-73
2022/10/25 09:13:50;;;;;;;5.53;1.95;;;19.80;99.90;;;;;;4144929;28;20275;-72
2022/10/25 09:16:00;;;;;;;4.35;1.85;;;19.80;99.90;;;;;;4142718;28;20294;-73
2022/10/25 09:18:10;;;;;;;4.85;1.92;;;19.80;99.90;;;;;;4139780;28;20339;-71
2022/10/25 09:20:19;;;;;;;3.45;1.33;;;19.80;99.90;;;;;;4141974;28;20669;-73
2022/10/25 09:22:26;;;;;;;3.47;1.73;;;19.90;99.90;;;;;;4139135;28;20220;-74
2022/10/25 09:24:36;;;;;;;5.53;1.70;;;19.90;99.90;;;;;;4142871;28;20217;-73
2022/10/25 09:26:41;;;;;;;3.08;1.65;;;19.90;99.90;;;;;;4143534;28;20220;-74
2022/10/25 09:28:53;;;;;;;4.00;1.60;;;19.90;99.90;;;;;;4144456;28;20265;-72
2022/10/25 09:30:59;;;;;;;5.75;1.80;;;19.90;99.90;;;;;;4145698;28;20213;-72
2022/10/25 09:33:05;;;;;;;4.95;1.85;;;20.00;99.90;;;;;;4142893;28;20217;-73
2022/10/25 09:35:16;;;;;;;4.07;1.40;;;20.00;99.90;;;;;;4139346;28;20271;-73
2022/10/25 09:37:25;;;;;;;5.25;2.00;;;20.00;99.90;;;;;;4141717;28;20213;-72
2022/10/25 09:39:35;;;;;;;5.10;1.60;;;20.00;99.90;;;;;;4137822;28;20220;-72
2022/10/25 09:41:41;;;;;;;3.78;1.70;;;20.00;99.90;;;;;;4140183;28;20227;-72
2022/10/25 09:43:50;;;;;;;4.15;1.73;;;20.00;99.90;;;;;;4133949;28;20621;-72
2022/10/25 09:45:56;;;;;;;5.28;1.65;;;20.00;99.90;;;;;;4135683;28;20225;-72
2022/10/25 09:48:05;;;;;;;5.10;1.80;;;20.00;99.90;;;;;;4141818;28;20226;-72
2022/10/25 09:50:16;;;;;;;4.93;1.95;;;20.00;99.90;;;;;;4137129;28;20216;-72
2022/10/25 09:52:24;;;;;;;7.32;1.98;;;20.00;99.90;;;;;;4146718;28;20283;-72
2022/10/25 09:54:32;;;;;;;5.15;1.90;;;20.00;99.90;;;;;;4143609;28;20308;-72
2022/10/25 09:56:36;;;;;;;5.45;2.13;;;20.00;99.90;;;;;;4140787;28;20217;-72
2022/10/25 09:58:41;;;;;;;5.95;1.90;;;20.00;99.90;;;;;;4141176;28;20300;-72
2022/10/25 10:00:43;;;;;;;5.05;1.60;;;20.00;99.90;;;;;;4140619;28;20667;-73
2022/10/25 10:02:46;;;;;;;4.43;1.80;;;20.10;99.90;;;;;;4139214;28;20331;-73
2022/10/25 10:04:48;;;;;;;3.92;1.60;;;20.10;99.90;;;;;;4139054;28;20467;-72
2022/10/25 10:06:53;;;;;;;8.00;1.90;;;20.00;99.90;;;;;;4144157;28;20225;-72
2022/10/25 10:08:59;;;;;;;2.72;1.40;;;20.00;99.90;;;;;;4139101;28;20260;-72
2022/10/25 10:11:03;;;;;;;3.67;1.77;;;20.10;99.90;;;;;;4139359;28;20225;-72
2022/10/25 10:13:15;;;;;;;4.95;1.70;;;20.10;99.90;;;;;;4142770;28;20271;-72
2022/10/25 10:15:22;;;;;;;4.80;1.92;;;20.10;99.90;;;;;;4143213;28;20212;-72
2022/10/25 10:17:27;;;;;;;8.43;1.73;;;20.10;99.90;;;;;;4142938;28;20275;-73
2022/10/25 10:19:30;;;;;;;6.70;2.28;;;20.10;99.90;;;;;;4138770;28;20222;-72
2022/10/25 10:21:34;;;;;;;3.72;1.63;;;20.10;99.90;;;;;;4143208;28;20263;-73
2022/10/25 10:23:44;;;;;;;5.53;1.98;;;20.10;99.90;;;;;;4142249;28;20213;-71
2022/10/25 10:25:47;;;;;;;4.60;1.83;;;20.10;99.90;;;;;;4142808;28;20220;-72
2022/10/25 10:27:52;;;;;;;8.95;2.10;;;20.10;99.90;;;;;;4147426;28;20224;-73
2022/10/25 10:29:59;;;;;;;2.50;1.40;;;20.10;99.90;;;;;;4141403;28;20217;-73
2022/10/25 10:32:05;;;;;;;4.47;1.73;;;20.10;99.90;;;;;;4137784;28;20270;-72
2022/10/25 10:34:23;;;;;;;8.25;1.90;;;20.10;99.90;;;;;;4141812;28;20268;-72
2022/10/25 10:36:28;;;;;;;3.60;1.80;;;20.10;99.90;;;;;;4141395;28;20212;-73
2022/10/25 10:38:30;;;;;;;7.90;2.22;;;20.10;99.90;;;;;;4139858;28;20221;-75
2022/10/25 10:40:33;;;;;;;5.78;2.13;;;20.10;99.90;;;;;;4134542;28;20237;-75
2022/10/25 10:42:36;;;;;;;3.65;1.98;;;20.10;99.90;;;;;;4138997;28;20212;-74
2022/10/25 10:44:39;;;;;;;6.50;1.65;;;20.00;99.90;;;;;;4143112;28;20271;-74
2022/10/25 10:46:46;;;;;;;5.95;2.25;;;20.10;99.90;;;;;;4136841;28;20220;-74
2022/10/25 10:48:54;;;;;;;6.30;1.75;;;20.10;99.90;;;;;;4141186;28;20233;-73
2022/10/25 10:50:57;;;;;;;6.32;2.08;;;20.10;99.90;;;;;;4141446;28;20267;-72